Time;durP1;ratioP1;P1;durP2;ratioP2;P2;SDS_P1;SDS_P2;PMS_P1;PMS_P2;Temp;Humidity;BMP_temperature;BMP_pressure;BME280_temperature;BME280_humidity;BME280_pressure;Samples;Min_cycle;Max_cycle;Signal;HPM_P1;HPM_P2
2023/09/28 00:11:13;;;;;;;7.50;3.75;;;;;;;24.70;37.44;96464.31;6126329;23;20072;-26
2023/09/28 00:27:05;;;;;;;5.70;3.00;;;;;;;24.87;37.30;96447.47;6125592;23;20081;-27
2023/09/28 00:42:59;;;;;;;6.50;3.28;;;;;;;24.80;37.17;96462.69;6124661;23;20442;-26
2023/09/28 00:58:53;;;;;;;5.55;2.90;;;;;;;24.76;36.84;96458.69;6125755;23;20339;-27
2023/09/28 01:11:55;;;;;;;5.97;2.70;;;;;;;24.85;36.61;96475.00;6126095;23;20037;-26
2023/09/28 01:27:48;;;;;;;4.85;2.88;;;;;;;24.78;36.88;96458.94;6125448;23;20130;-27
2023/09/28 01:43:39;;;;;;;6.22;2.97;;;;;;;24.77;36.49;96460.22;6125862;23;20092;-27
2023/09/28 01:46:05;;;;;;;5.18;2.85;;;;;;;24.84;36.34;96463.16;6127847;23;20432;-27
2023/09/28 01:58:35;;;;;;;4.90;2.90;;;;;;;24.62;35.99;96464.13;6129381;23;20496;-27
2023/09/28 02:14:28;;;;;;;5.00;3.10;;;;;;;24.52;35.86;96465.00;6127133;23;20349;-27
2023/09/28 02:27:48;;;;;;;6.70;2.97;;;;;;;24.76;35.71;96467.78;6127368;23;20344;-27
2023/09/28 02:44:06;;;;;;;4.43;2.50;;;;;;;24.52;35.77;96465.75;6125653;23;20117;-27
2023/09/28 03:00:00;;;;;;;12.82;3.00;;;;;;;24.60;35.71;96466.66;6126770;23;20144;-27
2023/09/28 03:13:20;;;;;;;9.10;2.95;;;;;;;24.57;35.16;96473.28;6126995;23;20333;-27
2023/09/28 03:29:13;;;;;;;7.57;2.83;;;;;;;24.36;35.64;96477.72;6126510;23;20384;-27
2023/09/28 03:31:38;;;;;;;7.47;2.63;;;;;;;24.41;35.34;96465.84;6100370;23;20009;-28
2023/09/28 03:34:04;;;;;;;5.93;2.58;;;;;;;24.48;35.00;96470.81;6126830;23;20030;-27
2023/09/28 03:43:44;;;;;;;7.15;2.40;;;;;;;24.53;34.89;96483.88;6125971;23;20084;-30
2023/09/28 03:46:11;;;;;;;5.55;2.60;;;;;;;24.54;35.13;96479.84;6097284;23;20014;-27
2023/09/28 03:58:51;;;;;;;5.82;2.75;;;;;;;24.55;34.97;96469.50;6097058;23;20013;-27
2023/09/28 04:15:22;;;;;;;4.97;3.05;;;;;;;24.49;35.14;96472.31;6096430;23;20049;-26
2023/09/28 04:45:20;;;;;;;9.40;3.00;;;;;;;24.36;35.65;96466.63;6115378;23;20105;-28
2023/09/28 05:01:13;;;;;;;7.20;2.83;;;;;;;24.37;35.43;96486.78;6125817;23;20024;-28
2023/09/28 05:30:32;;;;;;;9.27;2.95;;;;;;;24.38;35.91;96522.31;6127586;23;20040;-27
2023/09/28 05:32:57;;;;;;;7.28;2.80;;;;;;;24.37;35.83;96520.81;6127615;23;20392;-27
2023/09/28 05:45:28;;;;;;;5.95;3.00;;;;;;;24.38;36.23;96536.16;6126618;23;20516;-27
2023/09/28 06:01:22;;;;;;;5.80;3.13;;;;;;;24.27;37.21;96541.81;6127213;23;20036;-28
2023/09/28 06:03:47;;;;;;;6.80;2.92;;;;;;;24.53;36.70;96544.13;6127844;23;20009;-27
2023/09/28 06:16:18;;;;;;;5.38;2.78;;;;;;;24.36;37.66;96558.09;6126981;23;20045;-27
2023/09/28 06:32:10;;;;;;;3.60;2.85;;;;;;;24.41;38.24;96562.13;6127149;23;20451;-27
2023/09/28 07:02:50;;;;;;;10.23;3.38;;;;;;;24.81;38.49;96585.50;6126900;23;20381;-27
2023/09/28 07:16:04;;;;;;;6.47;2.88;;;;;;;24.61;39.66;96594.97;6126491;23;20088;-27
2023/09/28 07:31:56;;;;;;;7.30;2.92;;;;;;;24.77;39.41;96607.19;6126417;23;20037;-27
2023/09/28 07:47:48;;;;;;;7.03;3.00;;;;;;;24.65;40.39;96614.84;6124783;23;20101;-27
2023/09/28 08:03:41;;;;;;;6.82;3.80;;;;;;;24.84;40.28;96634.41;6126255;23;20021;-27
2023/09/28 08:16:46;;;;;;;6.38;3.03;;;;;;;25.00;39.99;96628.72;6125989;23;20041;-27
2023/09/28 08:32:38;;;;;;;9.38;4.93;;;;;;;25.44;39.44;96623.25;6125634;23;20020;-28
2023/09/28 08:48:33;;;;;;;7.03;4.68;;;;;;;25.58;39.29;96633.22;6124408;23;20515;-26
2023/09/28 08:51:09;;;;;;;7.00;4.60;;;;;;;25.19;39.98;96637.13;6125561;23;20014;-27
2023/09/28 09:03:40;;;;;;;6.35;4.78;;;;;;;25.58;38.76;96644.31;6125793;23;20021;-27
2023/09/28 09:19:33;;;;;;;4.18;3.55;;;;;;;25.57;38.57;96640.03;6125743;23;20017;-26
2023/09/28 09:32:38;;;;;;;5.72;3.42;;;;;;;25.63;38.12;96641.50;6125849;23;20099;-27
2023/09/28 09:48:40;;;;;;;9.48;4.07;;;;;;;25.68;37.89;96637.91;6124240;23;20029;-27
2023/09/28 10:04:33;;;;;;;6.43;3.85;;;;;;;25.83;37.80;96631.94;6127268;23;20017;-27
2023/09/28 10:34:04;;;;;;;5.40;3.25;;;;;;;25.98;37.78;96637.78;6127163;23;20451;-26
2023/09/28 10:50:00;;;;;;;6.80;3.33;;;;;;;25.95;37.15;96643.66;6125492;23;20029;-26
2023/09/28 11:05:53;;;;;;;6.18;3.30;;;;;;;26.01;37.24;96627.66;6126785;23;20021;-27
2023/09/28 11:18:56;;;;;;;6.68;2.97;;;;;;;26.12;36.47;96622.72;6126489;23;20333;-30
2023/09/28 11:34:48;;;;;;;8.30;3.00;;;;;;;26.02;36.20;96616.03;6126314;23;20024;-27
2023/09/28 11:50:40;;;;;;;4.72;2.95;;;;;;;26.09;35.86;96607.06;6124736;23;20392;-26
2023/09/28 12:06:33;;;;;;;6.55;3.05;;;;;;;26.17;35.11;96625.94;6126229;23;20013;-27
2023/09/28 12:19:37;;;;;;;6.45;3.25;;;;;;;26.29;34.92;96610.66;6126238;23;20021;-26
2023/09/28 12:35:30;;;;;;;5.18;3.20;;;;;;;26.30;35.50;96612.16;6125763;23;20017;-28
2023/09/28 12:51:22;;;;;;;10.07;3.00;;;;;;;26.21;34.94;96604.88;6124564;23;20404;-26
2023/09/28 13:07:15;;;;;;;6.15;2.72;;;;;;;26.21;34.54;96596.56;6125577;23;20025;-26
2023/09/28 13:20:26;;;;;;;6.03;2.97;;;;;;;26.11;34.06;96582.28;6125750;23;20068;-26
2023/09/28 13:36:19;;;;;;;5.22;2.85;;;;;;;26.25;33.93;96579.56;6127530;23;20072;-26
2023/09/28 13:52:11;;;;;;;7.82;2.80;;;;;;;26.33;34.33;96569.41;6126365;23;20029;-26
2023/09/28 14:21:30;;;;;;;7.38;3.08;;;;;;;26.37;34.35;96562.22;6127186;23;20510;-28
2023/09/28 14:37:22;;;;;;;7.20;3.47;;;;;;;26.44;35.76;96558.84;6126871;23;20028;-30
2023/09/28 14:53:16;;;;;;;8.88;2.90;;;;;;;26.47;36.41;96543.88;6126077;23;20104;-26
2023/09/28 15:06:29;;;;;;;8.00;3.25;;;;;;;26.51;36.26;96546.34;6126931;23;20089;-27
2023/09/28 15:22:22;;;;;;;6.00;3.05;;;;;;;26.52;36.10;96550.63;6126097;23;20013;-27
2023/09/28 15:38:15;;;;;;;8.40;3.38;;;;;;;26.65;35.89;96555.47;6126432;23;20140;-26
2023/09/28 15:40:41;;;;;;;5.05;3.63;;;;;;;26.59;36.04;96561.13;6126426;23;20009;-27
2023/09/28 15:53:12;;;;;;;7.38;3.80;;;;;;;26.62;36.52;96565.63;6125426;23;20024;-27
2023/09/28 16:09:04;;;;;;;6.05;3.42;;;;;;;26.65;36.95;96558.25;6125892;23;20021;-29
2023/09/28 16:22:20;;;;;;;5.47;3.45;;;;;;;26.68;36.90;96569.09;6126075;23;20089;-27
2023/09/28 16:38:13;;;;;;;5.20;3.65;;;;;;;26.65;37.60;96580.50;6125843;23;20064;-27
2023/09/28 16:54:05;;;;;;;4.88;3.50;;;;;;;26.71;37.98;96581.91;6124216;23;20029;-26
2023/09/28 17:09:57;;;;;;;5.90;3.38;;;;;;;26.73;37.89;96601.63;6125545;23;20130;-27
2023/09/28 17:22:59;;;;;;;6.28;3.75;;;;;;;26.69;37.80;96620.66;6125803;23;20013;-27
2023/09/28 17:38:51;;;;;;;7.25;4.72;;;;;;;26.29;41.87;96638.44;6125398;23;20032;-27
2023/09/28 17:41:17;;;;;;;8.90;4.88;;;;;;;26.50;41.85;96635.88;6125871;23;20412;-27
2023/09/28 17:43:42;;;;;;;13.98;6.00;;;;;;;26.53;41.70;96635.56;6126120;23;20071;-27
2023/09/28 17:53:20;;;;;;;11.65;5.10;;;;;;;26.28;42.67;96646.03;6124950;23;20092;-27
2023/09/28 17:55:46;;;;;;;10.10;5.78;;;;;;;26.45;42.05;96654.91;6125218;23;20022;-27
2023/09/28 17:58:13;;;;;;;11.13;5.68;;;;;;;26.38;42.20;96652.72;6125955;23;20012;-27
2023/09/28 18:24:36;;;;;;;9.63;5.63;;;;;;;26.28;42.64;96671.06;6126825;23;20030;-27
2023/09/28 18:40:29;;;;;;;9.23;4.85;;;;;;;26.07;43.21;96676.34;6127017;23;20552;-29
2023/09/28 18:56:22;;;;;;;9.13;5.30;;;;;;;26.20;42.03;96702.75;6124644;23;20028;-27
2023/09/28 19:12:14;;;;;;;7.40;5.32;;;;;;;26.35;39.87;96734.41;6126634;23;20483;-27
2023/09/28 19:28:06;;;;;;;6.75;4.90;;;;;;;26.17;38.92;96742.69;6126668;23;20017;-27
2023/09/28 19:40:59;;;;;;;6.20;4.65;;;;;;;26.17;39.20;96760.13;6126340;23;20499;-28
2023/09/28 19:56:51;;;;;;;10.75;4.00;;;;;;;26.06;39.11;96771.38;6124828;23;20106;-27
2023/09/28 20:12:43;;;;;;;6.38;3.97;;;;;;;26.03;39.33;96778.72;6125905;23;20013;-27
2023/09/28 20:28:35;;;;;;;6.05;4.45;;;;;;;25.96;38.77;96779.31;6125758;23;20016;-27
2023/09/28 20:41:37;;;;;;;8.60;3.85;;;;;;;25.88;39.18;96783.94;6125909;23;20086;-27
2023/09/28 20:44:04;;;;;;;5.45;4.68;;;;;;;25.72;39.62;96777.25;6125637;23;20002;-27
2023/09/28 20:57:00;;;;;;;6.97;4.15;;;;;;;25.95;38.81;96785.38;6124766;23;20032;-27
2023/09/28 21:12:54;;;;;;;7.75;4.20;;;;;;;25.79;38.81;96784.28;6096726;23;20392;-27
2023/09/28 21:28:45;;;;;;;8.57;3.83;;;;;;;25.87;38.11;96779.63;6096490;23;20017;-27
2023/09/28 21:58:04;;;;;;;7.35;4.00;;;;;;;25.77;37.02;96789.59;6112433;23;20459;-27
2023/09/28 22:00:41;;;;;;;7.97;3.60;;;;;;;25.67;37.31;96794.75;6127458;23;20010;-28
2023/09/28 22:13:11;;;;;;;6.35;3.80;;;;;;;25.61;37.02;96794.03;6126998;23;20012;-28
2023/09/28 22:29:05;;;;;;;6.43;3.97;;;;;;;25.59;35.70;96787.47;6127266;23;20388;-27
2023/09/28 22:58:24;;;;;;;6.03;3.58;;;;;;;25.59;35.56;96802.09;6125789;23;20085;-27
2023/09/28 23:14:16;;;;;;;9.50;4.03;;;;;;;25.54;35.46;96802.16;6126360;23;20061;-27
2023/09/28 23:30:12;;;;;;;6.75;3.63;;;;;;;25.34;35.88;96820.72;6126606;23;20049;-28
2023/09/28 23:43:40;;;;;;;6.15;3.90;;;;;;;25.33;35.85;96832.34;6126122;23;20085;-27
2023/09/28 23:59:31;;;;;;;7.63;3.78;;;;;;;25.35;35.66;96833.31;6125048;23;20043;-27
